Time;durP1;ratioP1;P1;durP2;ratioP2;P2;SDS_P1;SDS_P2;PMS_P1;PMS_P2;Temp;Humidity;BMP_temperature;BMP_pressure;BME280_temperature;BME280_humidity;BME280_pressure;Samples;Min_cycle;Max_cycle;Signal;HPM_P1;HPM_P2
2023/04/30 00:01:43;;;;;;;108.77;32.60;;;9.60;99.90;;;;;;5017784;28;20174;-83
2023/04/30 00:04:09;;;;;;;108.50;33.03;;;9.60;99.90;;;;;;5017227;28;20216;-84
2023/04/30 00:06:35;;;;;;;110.60;33.70;;;9.70;99.90;;;;;;5016871;28;20193;-84
2023/04/30 00:09:00;;;;;;;110.40;33.50;;;9.90;99.90;;;;;;5016891;28;20268;-83
2023/04/30 00:11:26;;;;;;;101.80;31.70;;;9.90;99.90;;;;;;5016677;28;20261;-83
2023/04/30 00:13:52;;;;;;;108.65;33.40;;;10.00;99.90;;;;;;5015610;28;20188;-84
2023/04/30 00:16:18;;;;;;;106.37;30.17;;;9.90;99.90;;;;;;5015573;28;20572;-84
2023/04/30 00:18:44;;;;;;;103.10;29.90;;;9.90;99.90;;;;;;5016847;28;20464;-83
2023/04/30 00:21:09;;;;;;;104.30;30.63;;;9.80;99.90;;;;;;5015468;28;20264;-83
2023/04/30 00:23:35;;;;;;;102.07;31.77;;;9.60;99.90;;;;;;5014984;28;20186;-84
2023/04/30 00:26:01;;;;;;;102.03;30.07;;;9.50;99.90;;;;;;5016394;28;20166;-84
2023/04/30 00:28:26;;;;;;;105.60;28.80;;;9.40;99.90;;;;;;5016775;28;20196;-84
2023/04/30 00:30:52;;;;;;;101.97;27.70;;;9.40;99.90;;;;;;5016246;28;20162;-84
2023/04/30 00:33:18;;;;;;;100.97;26.53;;;9.30;99.90;;;;;;5014578;28;20170;-84
2023/04/30 00:35:44;;;;;;;99.33;28.80;;;9.20;99.90;;;;;;5014777;28;20809;-83
2023/04/30 00:38:09;;;;;;;102.03;26.10;;;9.30;99.90;;;;;;5015058;28;20248;-84
2023/04/30 00:40:37;;;;;;;95.23;24.20;;;9.20;99.90;;;;;;5019691;28;20173;-84
2023/04/30 00:43:03;;;;;;;106.07;29.30;;;9.20;99.90;;;;;;5020550;28;20412;-83
2023/04/30 00:45:28;;;;;;;106.10;32.50;;;9.10;99.90;;;;;;5018846;28;20565;-84
2023/04/30 00:47:54;;;;;;;107.37;33.50;;;9.00;99.90;;;;;;5019166;28;20417;-83
2023/04/30 00:50:20;;;;;;;113.23;31.27;;;9.00;99.90;;;;;;5018330;28;20288;-83
2023/04/30 00:52:45;;;;;;;98.27;28.50;;;9.00;99.90;;;;;;5019840;28;20401;-83
2023/04/30 00:55:11;;;;;;;100.33;26.40;;;8.90;99.90;;;;;;5019712;28;20189;-83
2023/04/30 00:57:38;;;;;;;100.47;26.77;;;9.00;99.90;;;;;;5019541;28;20193;-83
2023/04/30 01:00:05;;;;;;;106.70;29.38;;;8.90;99.90;;;;;;5020075;28;20420;-83
2023/04/30 01:02:31;;;;;;;97.95;24.85;;;8.90;99.90;;;;;;5019462;28;20182;-83
2023/04/30 01:04:56;;;;;;;104.77;27.00;;;8.90;99.90;;;;;;5019950;28;20530;-83
2023/04/30 01:07:26;;;;;;;105.10;28.30;;;8.80;99.90;;;;;;5019696;28;20415;-83
2023/04/30 01:09:52;;;;;;;95.55;26.23;;;8.70;99.90;;;;;;5019521;28;20193;-83
2023/04/30 01:12:25;;;;;;;104.87;29.80;;;8.60;99.90;;;;;;5019979;28;20656;-83
2023/04/30 01:14:53;;;;;;;102.88;32.22;;;8.60;99.90;;;;;;5019500;28;20193;-83
2023/04/30 01:17:46;;;;;;;103.05;32.13;;;8.50;99.90;;;;;;5019516;28;20241;-83
2023/04/30 01:20:12;;;;;;;95.57;27.50;;;8.50;99.90;;;;;;5019426;28;20597;-83
2023/04/30 01:22:51;;;;;;;94.77;27.80;;;8.50;99.90;;;;;;5019625;28;20162;-83
2023/04/30 01:25:52;;;;;;;106.72;29.75;;;8.60;99.90;;;;;;5018789;28;20280;-83
2023/04/30 01:28:19;;;;;;;95.20;26.30;;;8.60;99.90;;;;;;5011607;28;20596;-83
2023/04/30 01:30:45;;;;;;;91.75;25.98;;;8.80;99.90;;;;;;5018937;28;20174;-83
2023/04/30 01:33:12;;;;;;;96.32;29.10;;;8.90;99.90;;;;;;5018032;28;20534;-82
2023/04/30 01:36:00;;;;;;;93.35;29.45;;;9.10;99.90;;;;;;5019161;28;20193;-83
2023/04/30 01:38:45;;;;;;;93.47;26.75;;;9.00;99.90;;;;;;5019431;28;20177;-83
2023/04/30 01:41:34;;;;;;;90.22;24.55;;;9.00;99.90;;;;;;5019542;28;20154;-83
2023/04/30 01:44:23;;;;;;;93.35;25.17;;;8.80;99.90;;;;;;5019627;28;20189;-83
2023/04/30 01:47:02;;;;;;;94.57;23.63;;;8.70;99.90;;;;;;5019860;28;20154;-83
2023/04/30 01:49:51;;;;;;;99.18;28.17;;;8.70;99.90;;;;;;5019079;28;20649;-82
2023/04/30 01:52:21;;;;;;;94.78;27.48;;;8.70;99.90;;;;;;5019125;28;20162;-83
2023/04/30 01:54:51;;;;;;;95.78;25.45;;;8.70;99.90;;;;;;5018006;28;20209;-83
2023/04/30 01:57:24;;;;;;;95.53;24.65;;;8.50;99.90;;;;;;5019336;28;20162;-83
2023/04/30 01:59:50;;;;;;;87.80;21.67;;;8.40;99.90;;;;;;5019448;28;20158;-83
2023/04/30 02:02:16;;;;;;;87.00;22.13;;;8.30;99.90;;;;;;5019053;28;20166;-83
2023/04/30 02:04:42;;;;;;;91.37;23.50;;;8.20;99.90;;;;;;5019166;28;20259;-83
2023/04/30 02:07:07;;;;;;;90.13;20.73;;;8.20;99.90;;;;;;5017686;28;20529;-83
2023/04/30 02:09:33;;;;;;;87.80;21.27;;;8.20;99.90;;;;;;5018519;28;20193;-83
2023/04/30 02:11:59;;;;;;;89.70;23.03;;;8.10;99.90;;;;;;5018895;28;20203;-83
2023/04/30 02:14:25;;;;;;;92.18;23.00;;;8.00;99.90;;;;;;5019380;28;20173;-83
2023/04/30 02:17:08;;;;;;;91.68;27.73;;;7.90;99.90;;;;;;5104649;23;20227;-82
2023/04/30 02:19:59;;;;;;;92.50;26.58;;;7.90;99.90;;;;;;5038801;28;20153;-82
2023/04/30 02:22:31;;;;;;;88.15;24.40;;;7.80;99.90;;;;;;5036405;28;20189;-81
2023/04/30 02:25:11;;;;;;;87.85;27.73;;;7.80;99.90;;;;;;5037664;28;20189;-80
2023/04/30 02:27:45;;;;;;;88.10;26.30;;;7.70;99.90;;;;;;5036862;28;20536;-80
2023/04/30 02:30:20;;;;;;;88.20;24.13;;;7.60;99.90;;;;;;5038176;28;20193;-80
2023/04/30 02:32:53;;;;;;;87.68;25.13;;;7.60;99.90;;;;;;5037981;28;20502;-80
2023/04/30 02:35:27;;;;;;;92.63;31.90;;;7.60;99.90;;;;;;5036639;28;20193;-80
2023/04/30 02:38:00;;;;;;;94.25;30.58;;;7.60;99.90;;;;;;5038159;28;20192;-80
2023/04/30 02:40:28;;;;;;;88.80;27.23;;;7.50;99.90;;;;;;5036865;28;20178;-80
2023/04/30 02:43:15;;;;;;;91.15;25.60;;;7.50;99.90;;;;;;5036316;28;20165;-80
2023/04/30 02:45:43;;;;;;;92.38;31.85;;;7.40;99.90;;;;;;5035796;22;20230;-80
2023/04/30 02:48:25;;;;;;;91.43;29.60;;;7.30;99.90;;;;;;5017837;28;20177;-80
2023/04/30 02:51:03;;;;;;;92.78;30.52;;;7.40;99.90;;;;;;5016501;28;20154;-80
2023/04/30 02:53:49;;;;;;;;;;;;;;;;;;;;;
2023/04/30 02:56:30;;;;;;;89.80;29.42;;;7.30;99.90;;;;;;5018353;28;20612;-80
2023/04/30 02:59:04;;;;;;;91.05;32.72;;;7.30;99.90;;;;;;5015493;28;20158;-80
2023/04/30 03:02:15;;;;;;;93.65;30.10;;;7.30;99.90;;;;;;5017109;28;20245;-82
2023/04/30 03:07:31;;;;;;;87.78;29.85;;;7.30;99.90;;;;;;4450906;26;20247;-83
2023/04/30 03:10:15;;;;;;;;;;;;;;;;;;;;;
2023/04/30 03:12:59;;;;;;;;;;;;;;;;;;;;;
2023/04/30 03:16:12;;;;;;;90.90;27.20;;;7.50;99.90;;;;;;4997429;28;20182;-83
2023/04/30 03:18:51;;;;;;;91.20;25.92;;;7.40;99.90;;;;;;4997012;28;20174;-83
2023/04/30 03:22:25;;;;;;;;;;;;;;;;;;;;;
2023/04/30 03:25:19;;;;;;;90.35;30.50;;;7.30;99.90;;;;;;5001569;28;20213;-83
2023/04/30 03:28:26;;;;;;;;;;;;;;;;;;;;;
2023/04/30 03:31:04;;;;;;;91.85;28.25;;;7.20;99.90;;;;;;4997889;28;20154;-83
2023/04/30 03:33:47;;;;;;;90.20;30.40;;;7.10;99.90;;;;;;4996732;28;20630;-83
2023/04/30 03:36:26;;;;;;;96.50;36.15;;;7.10;99.90;;;;;;4996643;28;20150;-83
2023/04/30 03:41:59;;;;;;;89.35;30.75;;;7.00;99.90;;;;;;4997388;28;20261;-83
2023/04/30 03:44:27;;;;;;;91.10;31.35;;;6.90;99.90;;;;;;4996753;28;20194;-83
2023/04/30 03:47:04;;;;;;;90.82;32.83;;;6.90;99.90;;;;;;4994148;28;20174;-83
2023/04/30 03:49:29;;;;;;;89.18;33.10;;;6.80;99.90;;;;;;4996138;28;20229;-83
2023/04/30 03:52:06;;;;;;;100.13;34.20;;;6.80;99.90;;;;;;4996596;28;20173;-83
2023/04/30 03:54:46;;;;;;;91.38;32.42;;;6.80;99.90;;;;;;4996618;28;20186;-83
2023/04/30 03:57:20;;;;;;;86.45;26.50;;;6.80;99.90;;;;;;4996735;28;20147;-83
2023/04/30 04:00:10;;;;;;;87.18;29.55;;;6.80;99.90;;;;;;4996050;28;20692;-83
2023/04/30 04:02:39;;;;;;;90.95;31.52;;;6.70;99.90;;;;;;4996830;28;20222;-83
2023/04/30 04:05:18;;;;;;;87.85;29.20;;;6.70;99.90;;;;;;4995239;28;20190;-84
2023/04/30 04:07:54;;;;;;;94.15;31.45;;;6.80;99.90;;;;;;4996393;28;20155;-83
2023/04/30 04:10:35;;;;;;;95.78;31.20;;;6.70;99.90;;;;;;4995207;28;20244;-84
2023/04/30 04:13:15;;;;;;;92.22;32.25;;;6.80;99.90;;;;;;4994168;28;20182;-84
2023/04/30 04:16:21;;;;;;;87.35;31.60;;;6.80;99.90;;;;;;4996436;28;20645;-83
2023/04/30 04:18:59;;;;;;;85.50;28.90;;;6.60;99.90;;;;;;5001048;28;20210;-83
2023/04/30 04:22:01;;;;;;;88.78;30.80;;;6.70;99.90;;;;;;4996188;28;20161;-83
2023/04/30 04:28:03;;;;;;;89.55;31.27;;;7.00;99.90;;;;;;5002330;28;20180;-84
2023/04/30 04:30:44;;;;;;;83.55;26.33;;;7.00;99.90;;;;;;5016164;28;20210;-84
2023/04/30 04:33:34;;;;;;;87.68;29.55;;;6.80;99.90;;;;;;5017659;28;20153;-83
2023/04/30 04:36:37;;;;;;;89.32;29.15;;;6.70;99.90;;;;;;4997976;28;20166;-84
2023/04/30 04:40:04;;;;;;;89.00;30.80;;;6.70;99.90;;;;;;5013356;28;20178;-84
2023/04/30 04:42:54;;;;;;;89.18;35.00;;;6.70;99.90;;;;;;4995763;28;20185;-84
2023/04/30 04:45:31;;;;;;;85.38;28.77;;;6.70;99.90;;;;;;4979502;28;20203;-84
2023/04/30 04:48:05;;;;;;;91.75;31.88;;;6.60;99.90;;;;;;4996782;28;20170;-84
2023/04/30 04:50:50;;;;;;;90.28;35.17;;;6.60;99.90;;;;;;4996884;28;20712;-84
2023/04/30 04:53:31;;;;;;;;;;;;;;;;;;;;;
2023/04/30 04:56:09;;;;;;;90.70;33.00;;;6.60;99.90;;;;;;4996267;28;20218;-84
2023/04/30 04:59:07;;;;;;;85.03;30.08;;;6.70;99.90;;;;;;4996320;28;20257;-84
2023/04/30 05:02:02;;;;;;;88.40;31.65;;;6.80;99.90;;;;;;4979623;28;20174;-84
2023/04/30 05:04:54;;;;;;;94.70;34.00;;;6.70;99.90;;;;;;4995936;28;20407;-84
2023/04/30 05:07:36;;;;;;;88.25;32.40;;;6.70;99.90;;;;;;4996665;28;20542;-82
2023/04/30 05:10:47;;;;;;;;;;;;;;;;;;;;;
2023/04/30 05:13:47;;;;;;;91.50;32.00;;;6.90;99.90;;;;;;4948843;29;20186;-83
2023/04/30 05:16:28;;;;;;;87.40;30.58;;;7.10;99.90;;;;;;4914856;29;20181;-84
2023/04/30 05:19:27;;;;;;;88.38;32.33;;;7.30;99.90;;;;;;4937099;29;20187;-84
2023/04/30 05:22:54;;;;;;;89.05;30.98;;;7.40;99.90;;;;;;4937092;29;20181;-84
2023/04/30 05:25:52;;;;;;;;;;;;;;;;;;;;;
2023/04/30 05:28:51;;;;;;;93.20;29.38;;;7.60;99.90;;;;;;4939357;29;20184;-84
2023/04/30 05:32:02;;;;;;;;;;;;;;;;;;;;;
2023/04/30 05:42:02;;;;;;;87.05;26.08;;;8.10;99.90;;;;;;4940961;29;20183;-84
2023/04/30 05:48:21;;;;;;;90.70;26.25;;;8.40;99.90;;;;;;4998437;28;20167;-84
2023/04/30 05:51:45;;;;;;;92.57;27.85;;;8.40;99.90;;;;;;4998474;28;20185;-84
2023/04/30 05:55:13;;;;;;;88.40;27.70;;;8.50;99.90;;;;;;4997409;28;20206;-84
2023/04/30 05:58:02;;;;;;;;;;;;;;;;;;;;;
2023/04/30 06:04:47;;;;;;;;;;;;;;;;;;;;;
2023/04/30 06:07:25;;;;;;;86.57;21.73;;;8.80;99.90;;;;;;4997635;28;20159;-82
2023/04/30 06:10:36;;;;;;;87.53;23.65;;;8.90;99.90;;;;;;4997061;28;20753;-82
2023/04/30 06:20:42;;;;;;;93.22;27.70;;;8.90;99.90;;;;;;4992813;28;20190;-82
2023/04/30 06:26:55;;;;;;;90.35;26.55;;;9.10;99.90;;;;;;4863578;29;20243;-82
2023/04/30 06:40:41;;;;;;;92.97;24.08;;;9.50;99.90;;;;;;4945022;28;20255;-82
2023/04/30 06:47:27;;;;;;;88.45;23.60;;;9.70;99.90;;;;;;4960646;28;20170;-82
2023/04/30 07:20:16;;;;;;;92.40;18.95;;;10.60;99.90;;;;;;4995288;28;20178;-82
2023/04/30 07:22:44;;;;;;;83.47;18.00;;;10.70;99.90;;;;;;4993933;28;20147;-83
2023/04/30 07:25:13;;;;;;;86.75;17.55;;;10.70;99.90;;;;;;4977357;28;20448;-82
2023/04/30 07:27:39;;;;;;;86.80;18.55;;;10.80;99.90;;;;;;4994815;28;20590;-82
2023/04/30 07:30:07;;;;;;;83.20;17.77;;;10.90;99.90;;;;;;4994448;28;20285;-82
2023/04/30 07:32:34;;;;;;;81.80;17.08;;;11.00;99.90;;;;;;4995766;28;20173;-82
2023/04/30 07:35:00;;;;;;;86.82;18.70;;;11.10;99.90;;;;;;5010467;28;20199;-82
2023/04/30 07:37:26;;;;;;;86.80;21.07;;;11.10;99.90;;;;;;4995541;28;20646;-82
2023/04/30 07:39:51;;;;;;;83.83;19.33;;;11.10;99.90;;;;;;4995849;28;20170;-82
2023/04/30 07:42:17;;;;;;;82.67;18.47;;;11.30;99.90;;;;;;4995437;28;20538;-82
2023/04/30 07:44:43;;;;;;;97.37;21.93;;;11.30;99.90;;;;;;4995344;28;20190;-82
2023/04/30 07:47:08;;;;;;;85.57;21.03;;;11.40;99.90;;;;;;5010451;28;20171;-82
2023/04/30 07:49:34;;;;;;;87.60;21.53;;;11.40;99.90;;;;;;4995360;28;20183;-82
2023/04/30 07:52:00;;;;;;;81.97;19.47;;;11.50;99.90;;;;;;4993964;28;20198;-82
2023/04/30 07:54:26;;;;;;;86.17;19.70;;;11.60;99.90;;;;;;4995434;28;20182;-82
2023/04/30 07:56:52;;;;;;;91.50;19.40;;;11.60;99.90;;;;;;4994071;28;20171;-81
2023/04/30 07:59:20;;;;;;;85.37;19.40;;;11.70;99.90;;;;;;4995372;28;20258;-81
2023/04/30 08:01:48;;;;;;;88.75;19.63;;;11.70;99.90;;;;;;5010743;28;20171;-82
2023/04/30 08:04:14;;;;;;;88.38;19.63;;;11.80;99.90;;;;;;4993974;28;20201;-81
2023/04/30 08:06:39;;;;;;;88.80;21.37;;;11.80;99.90;;;;;;4995295;28;20174;-81
2023/04/30 08:09:05;;;;;;;85.00;18.73;;;11.90;99.90;;;;;;4993663;28;20197;-81
2023/04/30 08:11:33;;;;;;;86.47;19.80;;;12.00;99.90;;;;;;4995265;28;20194;-82
2023/04/30 08:13:59;;;;;;;83.80;19.45;;;12.00;99.90;;;;;;4994765;28;20195;-81
2023/04/30 08:16:25;;;;;;;82.70;17.05;;;12.00;99.90;;;;;;5060652;23;20508;-84
2023/04/30 08:18:54;;;;;;;88.67;19.60;;;12.10;99.90;;;;;;5038249;28;20220;-85
2023/04/30 08:21:20;;;;;;;85.82;17.05;;;12.20;99.90;;;;;;5040599;28;20173;-86
2023/04/30 08:23:46;;;;;;;85.13;17.50;;;12.30;99.90;;;;;;5038682;28;20195;-86
2023/04/30 08:26:11;;;;;;;82.05;17.17;;;12.40;99.90;;;;;;5038826;28;20169;-85
2023/04/30 08:28:37;;;;;;;84.13;16.57;;;12.40;99.90;;;;;;5039310;28;20537;-86
2023/04/30 08:31:03;;;;;;;82.40;17.60;;;12.40;99.90;;;;;;5039668;28;20617;-85
2023/04/30 08:33:28;;;;;;;85.43;19.40;;;12.40;99.90;;;;;;5037296;28;20625;-85
2023/04/30 08:35:54;;;;;;;84.03;18.87;;;12.50;99.90;;;;;;5038464;28;20161;-85
2023/04/30 08:38:20;;;;;;;78.20;14.80;;;12.60;99.90;;;;;;5039337;28;20169;-86
2023/04/30 08:40:55;;;;;;;81.50;15.50;;;12.60;99.90;;;;;;5038730;28;20616;-85
2023/04/30 08:43:22;;;;;;;78.45;14.48;;;12.80;99.90;;;;;;5038356;28;20145;-85
2023/04/30 08:45:49;;;;;;;83.22;13.98;;;12.80;99.90;;;;;;5034822;28;20173;-84
2023/04/30 08:48:17;;;;;;;77.60;13.55;;;12.70;99.80;;;;;;5033802;28;20587;-84
2023/04/30 08:50:44;;;;;;;77.43;13.23;;;12.80;98.70;;;;;;5035902;28;20248;-84
2023/04/30 08:53:11;;;;;;;79.20;13.88;;;12.80;99.90;;;;;;5034410;28;20165;-84
2023/04/30 08:55:39;;;;;;;78.43;13.85;;;12.90;99.90;;;;;;5035678;28;20196;-86
2023/04/30 08:58:05;;;;;;;78.50;13.27;;;13.00;99.90;;;;;;5035338;28;20196;-85
2023/04/30 09:00:32;;;;;;;76.67;13.10;;;13.00;96.20;;;;;;5039174;28;20169;-85
2023/04/30 09:03:00;;;;;;;81.20;14.03;;;13.10;94.80;;;;;;5039589;28;20356;-85
2023/04/30 09:05:25;;;;;;;75.97;12.73;;;13.10;93.60;;;;;;5039423;28;20431;-85
2023/04/30 09:07:51;;;;;;;71.70;9.83;;;13.20;87.60;;;;;;5040962;28;20161;-84
2023/04/30 09:10:19;;;;;;;71.80;10.67;;;13.40;24.60;;;;;;5039819;28;20199;-84
2023/04/30 09:13:17;;;;;;;70.75;9.38;;;13.50;35.40;;;;;;5039804;28;20165;-85
2023/04/30 09:15:44;;;;;;;72.43;11.02;;;13.70;19.70;;;;;;5026676;28;20181;-84
2023/04/30 09:18:16;;;;;;;78.15;12.20;;;13.80;4.90;;;;;;5036933;28;20230;-84
2023/04/30 09:21:00;;;;;;;72.47;9.40;;;13.80;27.70;;;;;;5037078;28;20169;-84
2023/04/30 09:23:27;;;;;;;70.68;5.78;;;14.00;10.00;;;;;;5036793;28;20507;-84
2023/04/30 09:25:52;;;;;;;68.10;6.87;;;14.10;1.00;;;;;;5037288;28;20181;-85
2023/04/30 09:28:22;;;;;;;69.30;7.53;;;14.20;1.00;;;;;;5036654;28;20545;-85
2023/04/30 09:30:49;;;;;;;67.37;5.87;;;14.30;1.00;;;;;;5037993;28;20400;-84
2023/04/30 09:33:14;;;;;;;69.27;6.70;;;14.40;1.00;;;;;;5038405;28;20400;-84
2023/04/30 09:35:43;;;;;;;69.77;6.73;;;14.50;1.00;;;;;;5036655;28;20772;-84
2023/04/30 09:38:31;;;;;;;69.00;6.00;;;14.50;1.00;;;;;;5037591;28;20161;-84
2023/04/30 09:41:00;;;;;;;68.70;6.20;;;14.60;1.00;;;;;;5035789;28;20511;-85
2023/04/30 09:43:30;;;;;;;67.27;6.70;;;14.70;1.00;;;;;;5035680;28;20407;-84
2023/04/30 09:45:58;;;;;;;67.40;5.60;;;14.80;1.00;;;;;;5037417;28;20755;-82
2023/04/30 09:48:28;;;;;;;67.20;6.00;;;15.00;1.00;;;;;;5037338;28;20408;-83
2023/04/30 09:50:54;;;;;;;67.17;6.10;;;15.20;1.00;;;;;;5037584;28;20393;-82
2023/04/30 09:53:20;;;;;;;70.27;7.53;;;15.20;1.00;;;;;;5035417;28;20415;-82
2023/04/30 09:55:48;;;;;;;68.07;6.93;;;15.30;1.00;;;;;;5036009;28;20252;-82
2023/04/30 09:58:16;;;;;;;68.57;7.93;;;15.50;1.00;;;;;;5037181;28;20858;-82
2023/04/30 10:00:43;;;;;;;71.00;7.63;;;15.60;1.00;;;;;;5037108;28;20408;-82
2023/04/30 10:03:11;;;;;;;67.37;6.40;;;15.60;1.00;;;;;;5037192;28;20415;-85
2023/04/30 10:05:41;;;;;;;69.53;6.70;;;15.90;1.00;;;;;;5036599;28;20439;-85
2023/04/30 10:08:37;;;;;;;67.90;6.60;;;16.10;1.00;;;;;;5035528;28;20507;-84
2023/04/30 10:11:05;;;;;;;69.20;6.60;;;16.30;1.00;;;;;;5030907;28;20443;-84
2023/04/30 10:14:02;;;;;;;68.50;5.50;;;16.40;1.00;;;;;;5035404;28;20416;-83
2023/04/30 10:16:45;;;;;;;72.20;5.87;;;16.30;1.00;;;;;;5032149;28;20419;-84
2023/04/30 10:19:21;;;;;;;67.50;5.60;;;16.30;1.00;;;;;;5038894;28;20420;-84
2023/04/30 10:21:47;;;;;;;70.67;6.20;;;16.40;1.00;;;;;;5038968;28;20400;-84
2023/04/30 10:24:17;;;;;;;68.27;5.50;;;16.70;1.00;;;;;;5040347;28;20412;-85
2023/04/30 10:26:43;;;;;;;67.20;5.63;;;17.00;1.00;;;;;;5039119;28;20476;-85
2023/04/30 10:29:09;;;;;;;67.50;5.73;;;17.30;1.00;;;;;;5039656;28;20448;-85
2023/04/30 10:31:36;;;;;;;67.70;6.00;;;17.60;1.00;;;;;;5039770;28;20420;-86
2023/04/30 10:34:39;;;;;;;66.97;7.40;;;17.70;1.00;;;;;;5041642;28;20429;-86
2023/04/30 10:37:49;;;;;;;68.40;7.63;;;17.80;1.00;;;;;;5040506;28;20411;-85
2023/04/30 10:40:15;;;;;;;68.50;8.00;;;17.90;1.00;;;;;;5019666;28;20450;-84
2023/04/30 10:42:53;;;;;;;68.00;8.30;;;18.00;1.00;;;;;;5048441;28;20414;-84
2023/04/30 10:45:37;;;;;;;66.90;6.77;;;18.10;1.00;;;;;;5039654;28;20937;-84
2023/04/30 10:48:06;;;;;;;68.17;7.47;;;18.50;1.00;;;;;;5041992;28;20419;-84
2023/04/30 10:50:32;;;;;;;67.67;8.50;;;18.60;1.00;;;;;;5040754;28;20453;-84
2023/04/30 10:53:05;;;;;;;67.57;4.47;;;18.40;1.00;;;;;;5041329;28;20468;-84
2023/04/30 10:55:32;;;;;;;68.47;4.47;;;18.10;1.00;;;;;;5039187;28;20962;-84
2023/04/30 10:57:58;;;;;;;66.27;4.20;;;18.00;1.00;;;;;;5039793;28;20415;-84
2023/04/30 11:00:26;;;;;;;66.67;4.40;;;18.10;1.00;;;;;;5041070;28;20888;-84
2023/04/30 11:03:02;;;;;;;66.97;4.13;;;18.30;1.00;;;;;;5039784;28;20412;-84
2023/04/30 11:05:38;;;;;;;65.93;3.20;;;18.60;1.00;;;;;;5039399;28;20458;-84
2023/04/30 11:08:05;;;;;;;66.63;3.87;;;18.70;1.00;;;;;;5041785;28;20783;-84
2023/04/30 11:10:34;;;;;;;65.37;4.27;;;18.20;1.00;;;;;;5040311;28;20454;-84
2023/04/30 11:13:05;;;;;;;66.27;3.23;;;18.20;1.00;;;;;;5040376;28;20898;-84
2023/04/30 11:15:38;;;;;;;66.07;3.60;;;18.10;1.00;;;;;;5041516;28;20473;-84
2023/04/30 11:18:08;;;;;;;68.93;6.03;;;17.80;1.00;;;;;;5039250;28;20492;-84
2023/04/30 11:20:47;;;;;;;66.37;3.33;;;18.20;1.00;;;;;;5040649;28;20796;-84
2023/04/30 11:23:15;;;;;;;65.37;3.20;;;18.70;1.00;;;;;;5039547;28;20412;-84
2023/04/30 11:25:42;;;;;;;66.40;3.60;;;18.70;1.00;;;;;;5041081;28;20415;-84
2023/04/30 11:28:29;;;;;;;66.57;3.33;;;18.90;1.00;;;;;;5039156;28;20455;-84
2023/04/30 11:30:59;;;;;;;66.03;3.20;;;18.80;1.00;;;;;;5040894;28;20412;-84
2023/04/30 11:33:26;;;;;;;66.50;3.37;;;18.70;1.00;;;;;;5039380;28;20427;-84
2023/04/30 11:35:54;;;;;;;67.00;3.10;;;18.60;1.00;;;;;;5040642;28;20399;-84
2023/04/30 11:38:35;;;;;;;65.77;3.13;;;18.70;1.00;;;;;;5038930;28;20426;-84
2023/04/30 11:41:02;;;;;;;65.73;3.13;;;19.00;1.00;;;;;;5039451;28;20507;-84
2023/04/30 11:43:30;;;;;;;66.17;3.13;;;19.10;1.00;;;;;;5039759;28;20756;-84
2023/04/30 11:46:08;;;;;;;67.33;3.00;;;19.40;1.00;;;;;;5040487;28;20393;-84
2023/04/30 11:48:36;;;;;;;68.50;3.27;;;19.80;1.00;;;;;;5039567;28;20400;-84
2023/04/30 11:51:03;;;;;;;66.30;2.93;;;19.90;1.00;;;;;;5039988;28;20411;-84
2023/04/30 11:53:29;;;;;;;70.43;3.83;;;20.30;1.00;;;;;;5040414;28;20454;-85
2023/04/30 11:55:55;;;;;;;66.07;3.13;;;20.60;1.00;;;;;;5038660;28;20408;-84
2023/04/30 11:58:21;;;;;;;66.13;3.13;;;20.60;1.00;;;;;;5035842;28;20422;-83
2023/04/30 12:00:50;;;;;;;65.50;3.00;;;20.50;1.00;;;;;;5035839;28;20219;-83
2023/04/30 12:03:16;;;;;;;67.40;3.73;;;20.50;1.00;;;;;;5035232;28;20412;-82
2023/04/30 12:05:48;;;;;;;66.90;3.20;;;20.50;1.00;;;;;;5034882;28;20412;-84
2023/04/30 12:08:13;;;;;;;67.07;3.40;;;20.80;1.00;;;;;;5033595;28;20783;-83
2023/04/30 12:10:39;;;;;;;67.33;3.80;;;20.90;1.00;;;;;;5034536;28;20538;-82
2023/04/30 12:13:04;;;;;;;68.00;4.10;;;20.60;1.00;;;;;;5033529;28;20303;-83
2023/04/30 12:15:31;;;;;;;67.50;4.70;;;20.10;1.00;;;;;;5033562;28;20683;-83
2023/04/30 12:17:58;;;;;;;69.20;4.00;;;19.70;1.00;;;;;;5033413;28;20186;-83
2023/04/30 12:20:27;;;;;;;68.07;4.03;;;19.10;1.00;;;;;;5034779;28;20412;-82
2023/04/30 12:22:53;;;;;;;66.20;3.83;;;18.80;1.00;;;;;;5035091;28;20431;-82
2023/04/30 12:25:20;;;;;;;66.70;3.37;;;19.10;1.00;;;;;;5038428;28;20419;-83
2023/04/30 12:27:48;;;;;;;65.87;3.03;;;19.50;1.00;;;;;;5034126;28;20442;-83
2023/04/30 12:30:17;;;;;;;66.17;4.17;;;19.90;1.00;;;;;;5036218;28;20440;-84
2023/04/30 12:32:44;;;;;;;66.07;3.20;;;19.90;1.00;;;;;;5035562;28;20407;-83
2023/04/30 12:35:15;;;;;;;66.50;4.40;;;20.10;1.00;;;;;;5036257;28;20424;-83
2023/04/30 12:37:50;;;;;;;66.43;4.30;;;20.20;1.00;;;;;;5038419;28;20404;-83
2023/04/30 12:40:18;;;;;;;67.77;5.00;;;20.40;1.00;;;;;;5039675;28;20473;-83
2023/04/30 12:42:45;;;;;;;68.87;4.80;;;20.70;1.00;;;;;;5038736;28;20400;-83
2023/04/30 12:45:12;;;;;;;66.77;3.00;;;20.60;1.00;;;;;;5037811;28;20457;-82
2023/04/30 12:47:42;;;;;;;66.20;3.20;;;20.90;1.00;;;;;;5039090;28;20410;-83
2023/04/30 12:50:08;;;;;;;68.00;7.53;;;21.30;1.00;;;;;;5038766;28;20471;-83
2023/04/30 12:52:33;;;;;;;68.03;7.90;;;21.20;1.00;;;;;;5037836;28;20408;-83
2023/04/30 12:55:17;;;;;;;69.00;8.20;;;21.20;1.00;;;;;;5038820;28;20428;-83
2023/04/30 12:58:06;;;;;;;68.13;7.57;;;21.10;1.00;;;;;;5039872;28;20155;-83
2023/04/30 13:00:43;;;;;;;69.80;7.23;;;21.20;1.00;;;;;;5040075;28;20433;-83
2023/04/30 13:03:10;;;;;;;67.67;6.40;;;21.00;1.00;;;;;;5038627;28;20441;-83
2023/04/30 13:05:36;;;;;;;68.13;6.37;;;20.90;1.00;;;;;;5037839;28;20495;-83
2023/04/30 13:08:04;;;;;;;67.50;6.17;;;21.10;1.00;;;;;;5038879;28;20406;-83
2023/04/30 13:10:31;;;;;;;67.87;7.00;;;21.30;1.00;;;;;;5039170;28;20263;-83
2023/04/30 13:12:57;;;;;;;67.87;6.20;;;21.10;1.00;;;;;;5037707;28;20493;-83
2023/04/30 13:15:23;;;;;;;68.00;6.27;;;21.20;1.00;;;;;;5038898;28;20948;-82
2023/04/30 13:17:48;;;;;;;67.87;5.33;;;21.40;1.00;;;;;;5039786;28;20464;-83
2023/04/30 13:20:17;;;;;;;67.60;5.27;;;21.10;1.00;;;;;;5037693;28;20266;-84
2023/04/30 13:22:43;;;;;;;67.67;5.10;;;20.80;1.00;;;;;;5038258;28;20410;-84
2023/04/30 13:25:09;;;;;;;66.53;3.80;;;20.20;1.00;;;;;;5038965;28;21078;-83
2023/04/30 13:27:35;;;;;;;66.60;4.70;;;20.00;1.00;;;;;;5038568;28;20170;-83
2023/04/30 13:30:05;;;;;;;66.53;5.17;;;19.60;1.00;;;;;;5037557;28;20193;-84
2023/04/30 13:32:30;;;;;;;66.87;5.20;;;19.60;1.00;;;;;;5038749;28;20815;-84
2023/04/30 13:34:57;;;;;;;67.50;6.10;;;19.50;1.00;;;;;;5037705;28;20516;-83
2023/04/30 13:37:23;;;;;;;66.47;4.00;;;19.50;1.00;;;;;;5038219;28;20165;-83
2023/04/30 13:39:48;;;;;;;66.57;4.67;;;19.30;1.00;;;;;;5039143;28;20453;-84
2023/04/30 13:42:14;;;;;;;67.33;4.30;;;19.40;1.00;;;;;;5037896;28;20434;-83
2023/04/30 13:44:40;;;;;;;66.60;5.27;;;19.30;1.00;;;;;;5039253;28;20526;-83
2023/04/30 13:47:06;;;;;;;66.37;5.20;;;19.50;1.00;;;;;;5036887;28;20166;-83
2023/04/30 13:49:34;;;;;;;66.87;4.23;;;20.00;1.00;;;;;;5039816;28;20190;-84
2023/04/30 13:52:00;;;;;;;65.97;3.90;;;20.40;1.00;;;;;;5040863;28;20404;-84
2023/04/30 13:54:26;;;;;;;72.17;4.83;;;20.20;1.00;;;;;;5037899;28;20512;-84
2023/04/30 13:56:52;;;;;;;66.80;4.50;;;20.30;1.00;;;;;;5039408;28;20162;-84
2023/04/30 13:59:17;;;;;;;67.57;5.00;;;20.00;1.00;;;;;;5038694;28;20656;-84
2023/04/30 14:01:43;;;;;;;66.70;4.40;;;19.90;1.00;;;;;;5037796;28;20789;-84
2023/04/30 14:04:09;;;;;;;66.90;4.67;;;19.90;1.00;;;;;;5038669;28;20188;-84
2023/04/30 14:06:35;;;;;;;66.17;3.50;;;19.70;1.00;;;;;;5039489;28;20169;-83
2023/04/30 14:09:00;;;;;;;67.13;4.20;;;19.60;1.00;;;;;;5036012;28;20707;-83
2023/04/30 14:11:26;;;;;;;67.63;5.07;;;19.70;1.00;;;;;;5034496;28;20169;-82
2023/04/30 14:13:53;;;;;;;66.47;4.53;;;20.20;1.00;;;;;;5034441;28;20268;-83
2023/04/30 14:16:19;;;;;;;66.67;5.10;;;20.60;1.00;;;;;;5036258;28;20168;-83
2023/04/30 14:18:45;;;;;;;67.17;4.63;;;20.80;1.00;;;;;;5096720;22;20509;-85
2023/04/30 14:21:11;;;;;;;67.50;6.47;;;20.70;1.00;;;;;;5022998;28;20492;-86
2023/04/30 14:23:38;;;;;;;67.30;6.03;;;20.80;1.00;;;;;;5021062;28;20429;-87
2023/04/30 14:26:04;;;;;;;67.10;5.80;;;21.00;1.00;;;;;;5018242;28;20181;-87
2023/04/30 14:28:29;;;;;;;69.50;5.30;;;21.00;1.00;;;;;;5019886;28;20422;-87
2023/04/30 14:30:55;;;;;;;67.47;5.10;;;20.80;1.00;;;;;;5022460;28;20415;-87
2023/04/30 14:33:21;;;;;;;67.27;5.83;;;20.60;1.00;;;;;;5020322;28;20167;-86
2023/04/30 14:35:46;;;;;;;68.40;4.60;;;20.40;1.00;;;;;;5018651;28;20202;-88
2023/04/30 14:38:13;;;;;;;66.90;4.47;;;20.20;1.00;;;;;;5020483;28;20262;-87
2023/04/30 14:40:39;;;;;;;67.77;4.07;;;20.00;1.00;;;;;;5019778;28;20180;-87
2023/04/30 14:43:05;;;;;;;67.83;4.30;;;19.70;1.00;;;;;;5018800;28;20412;-87
2023/04/30 14:45:33;;;;;;;67.30;4.00;;;19.70;1.00;;;;;;5019324;28;20190;-87